sensor_id;sensor_type;location;lat;lon;timestamp;pressure;altitude;pressure_sealevel;temperature;humidity
44140;BME280;29803;51.048;4.686;2023-08-07T00:01:18;101547.34;;;13.30;100.00
44140;BME280;29803;51.048;4.686;2023-08-07T00:03:48;101543.97;;;13.28;100.00
44140;BME280;29803;51.048;4.686;2023-08-07T00:06:19;101539.25;;;13.22;100.00
44140;BME280;29803;51.048;4.686;2023-08-07T00:08:49;101544.81;;;13.20;100.00
44140;BME280;29803;51.048;4.686;2023-08-07T00:11:20;101546.47;;;13.05;100.00
44140;BME280;29803;51.048;4.686;2023-08-07T00:13:50;101543.06;;;13.03;100.00
44140;BME280;29803;51.048;4.686;2023-08-07T00:16:21;101543.91;;;12.95;100.00
44140;BME280;29803;51.048;4.686;2023-08-07T00:18:51;101545.91;;;12.93;100.00
44140;BME280;29803;51.048;4.686;2023-08-07T00:21:26;101543.03;;;12.95;100.00
44140;BME280;29803;51.048;4.686;2023-08-07T00:23:56;101541.53;;;12.92;100.00
44140;BME280;29803;51.048;4.686;2023-08-07T00:26:27;101543.88;;;12.87;100.00
44140;BME280;29803;51.048;4.686;2023-08-07T00:28:57;101546.75;;;12.86;100.00
44140;BME280;29803;51.048;4.686;2023-08-07T00:31:28;101550.59;;;12.83;100.00
44140;BME280;29803;51.048;4.686;2023-08-07T00:34:01;101552.09;;;12.78;100.00
44140;BME280;29803;51.048;4.686;2023-08-07T00:36:32;101555.63;;;12.78;100.00
44140;BME280;29803;51.048;4.686;2023-08-07T00:39:05;101559.28;;;12.69;100.00
44140;BME280;29803;51.048;4.686;2023-08-07T00:41:35;101560.00;;;12.71;100.00
44140;BME280;29803;51.048;4.686;2023-08-07T00:44:06;101566.53;;;12.68;100.00
44140;BME280;29803;51.048;4.686;2023-08-07T00:46:36;101562.16;;;12.67;100.00
44140;BME280;29803;51.048;4.686;2023-08-07T00:49:11;101564.69;;;12.69;100.00
44140;BME280;29803;51.048;4.686;2023-08-07T00:51:42;101560.66;;;12.73;100.00
44140;BME280;29803;51.048;4.686;2023-08-07T00:54:15;101565.41;;;12.87;100.00
44140;BME280;29803;51.048;4.686;2023-08-07T00:56:48;101567.28;;;12.87;100.00
44140;BME280;29803;51.048;4.686;2023-08-07T00:59:19;101570.81;;;12.87;100.00
44140;BME280;29803;51.048;4.686;2023-08-07T01:01:50;101565.47;;;12.95;100.00
44140;BME280;29803;51.048;4.686;2023-08-07T01:04:21;101565.63;;;13.02;100.00
44140;BME280;29803;51.048;4.686;2023-08-07T01:06:51;101564.44;;;13.05;100.00
44140;BME280;29803;51.048;4.686;2023-08-07T01:09:22;101562.59;;;12.97;100.00
44140;BME280;29803;51.048;4.686;2023-08-07T01:15:08;101566.28;;;12.96;100.00
44140;BME280;29803;51.048;4.686;2023-08-07T01:17:43;101566.44;;;12.94;100.00
44140;BME280;29803;51.048;4.686;2023-08-07T01:20:14;101564.25;;;12.90;100.00
44140;BME280;29803;51.048;4.686;2023-08-07T01:22:47;101561.88;;;12.87;100.00
44140;BME280;29803;51.048;4.686;2023-08-07T01:25:17;101566.56;;;12.77;100.00
44140;BME280;29803;51.048;4.686;2023-08-07T01:27:55;101565.25;;;12.81;100.00
44140;BME280;29803;51.048;4.686;2023-08-07T01:30:35;101571.78;;;12.78;100.00
44140;BME280;29803;51.048;4.686;2023-08-07T01:35:55;101569.56;;;12.74;100.00
44140;BME280;29803;51.048;4.686;2023-08-07T01:38:28;101567.22;;;12.70;100.00
44140;BME280;29803;51.048;4.686;2023-08-07T01:41:00;101564.84;;;12.67;100.00
44140;BME280;29803;51.048;4.686;2023-08-07T01:43:32;101564.31;;;12.64;100.00
44140;BME280;29803;51.048;4.686;2023-08-07T01:46:03;101568.19;;;12.61;100.00
44140;BME280;29803;51.048;4.686;2023-08-07T01:48:35;101567.50;;;12.59;100.00
44140;BME280;29803;51.048;4.686;2023-08-07T01:51:05;101567.13;;;12.54;100.00
44140;BME280;29803;51.048;4.686;2023-08-07T01:53:36;101569.00;;;12.54;100.00
44140;BME280;29803;51.048;4.686;2023-08-07T01:56:06;101574.84;;;12.49;100.00
44140;BME280;29803;51.048;4.686;2023-08-07T01:58:37;101570.66;;;12.47;100.00
44140;BME280;29803;51.048;4.686;2023-08-07T02:01:08;101572.16;;;12.49;100.00
44140;BME280;29803;51.048;4.686;2023-08-07T02:03:38;101574.19;;;12.47;100.00
44140;BME280;29803;51.048;4.686;2023-08-07T02:06:09;101570.31;;;12.50;100.00
44140;BME280;29803;51.048;4.686;2023-08-07T02:08:39;101573.00;;;12.50;100.00
44140;BME280;29803;51.048;4.686;2023-08-07T02:11:10;101572.53;;;12.54;100.00
44140;BME280;29803;51.048;4.686;2023-08-07T02:13:41;101575.22;;;12.54;100.00
44140;BME280;29803;51.048;4.686;2023-08-07T02:16:12;101571.03;;;12.60;100.00
44140;BME280;29803;51.048;4.686;2023-08-07T02:18:43;101581.59;;;12.53;100.00
44140;BME280;29803;51.048;4.686;2023-08-07T02:21:14;101580.59;;;12.54;100.00
44140;BME280;29803;51.048;4.686;2023-08-07T02:23:44;101578.59;;;12.56;100.00
44140;BME280;29803;51.048;4.686;2023-08-07T02:26:15;101583.09;;;12.48;100.00
44140;BME280;29803;51.048;4.686;2023-08-07T02:28:46;101575.88;;;12.48;100.00
44140;BME280;29803;51.048;4.686;2023-08-07T02:31:16;101584.41;;;12.43;100.00
44140;BME280;29803;51.048;4.686;2023-08-07T02:33:47;101577.66;;;12.39;100.00
44140;BME280;29803;51.048;4.686;2023-08-07T02:36:17;101589.91;;;12.34;100.00
44140;BME280;29803;51.048;4.686;2023-08-07T02:38:48;101583.31;;;12.28;100.00
44140;BME280;29803;51.048;4.686;2023-08-07T02:41:18;101583.28;;;12.20;100.00
44140;BME280;29803;51.048;4.686;2023-08-07T02:43:49;101587.19;;;12.26;100.00
44140;BME280;29803;51.048;4.686;2023-08-07T02:46:19;101579.38;;;12.14;100.00
44140;BME280;29803;51.048;4.686;2023-08-07T02:48:50;101580.75;;;12.18;100.00
44140;BME280;29803;51.048;4.686;2023-08-07T02:51:20;101578.75;;;12.21;100.00
44140;BME280;29803;51.048;4.686;2023-08-07T02:53:51;101577.91;;;12.20;100.00
44140;BME280;29803;51.048;4.686;2023-08-07T02:56:21;101584.13;;;12.21;100.00
44140;BME280;29803;51.048;4.686;2023-08-07T02:58:52;101578.69;;;12.12;100.00
44140;BME280;29803;51.048;4.686;2023-08-07T03:01:22;101581.03;;;12.07;100.00
44140;BME280;29803;51.048;4.686;2023-08-07T03:03:53;101591.78;;;12.07;100.00
44140;BME280;29803;51.048;4.686;2023-08-07T03:06:24;101583.88;;;12.06;100.00
44140;BME280;29803;51.048;4.686;2023-08-07T03:08:54;101584.72;;;12.06;100.00
44140;BME280;29803;51.048;4.686;2023-08-07T03:11:25;101573.97;;;12.06;100.00
44140;BME280;29803;51.048;4.686;2023-08-07T03:13:55;101586.69;;;12.04;100.00
44140;BME280;29803;51.048;4.686;2023-08-07T03:16:26;101583.16;;;12.04;100.00
44140;BME280;29803;51.048;4.686;2023-08-07T03:18:57;101573.59;;;12.01;100.00
44140;BME280;29803;51.048;4.686;2023-08-07T03:21:27;101580.00;;;12.08;100.00
44140;BME280;29803;51.048;4.686;2023-08-07T03:23:58;101569.25;;;12.08;100.00
44140;BME280;29803;51.048;4.686;2023-08-07T03:26:28;101570.78;;;12.11;100.00
44140;BME280;29803;51.048;4.686;2023-08-07T03:28:59;101582.22;;;12.13;100.00
44140;BME280;29803;51.048;4.686;2023-08-07T03:31:29;101571.47;;;12.13;100.00
44140;BME280;29803;51.048;4.686;2023-08-07T03:34:00;101579.25;;;12.24;100.00
44140;BME280;29803;51.048;4.686;2023-08-07T03:36:30;101576.56;;;12.24;100.00
44140;BME280;29803;51.048;4.686;2023-08-07T03:39:01;101579.31;;;12.32;100.00
44140;BME280;29803;51.048;4.686;2023-08-07T03:41:31;101576.81;;;12.39;100.00
44140;BME280;29803;51.048;4.686;2023-08-07T03:44:02;101572.13;;;12.41;100.00
44140;BME280;29803;51.048;4.686;2023-08-07T03:46:32;101576.03;;;12.47;100.00
44140;BME280;29803;51.048;4.686;2023-08-07T03:49:03;101574.53;;;12.52;100.00
44140;BME280;29803;51.048;4.686;2023-08-07T03:51:34;101581.66;;;12.61;100.00
44140;BME280;29803;51.048;4.686;2023-08-07T03:54:05;101577.47;;;12.67;100.00
44140;BME280;29803;51.048;4.686;2023-08-07T03:56:36;101576.63;;;12.66;100.00
44140;BME280;29803;51.048;4.686;2023-08-07T03:59:08;101579.81;;;12.70;100.00
44140;BME280;29803;51.048;4.686;2023-08-07T04:01:38;101581.19;;;12.74;100.00
44140;BME280;29803;51.048;4.686;2023-08-07T04:04:09;101590.63;;;12.78;100.00
44140;BME280;29803;51.048;4.686;2023-08-07T04:06:39;101585.78;;;12.82;100.00
44140;BME280;29803;51.048;4.686;2023-08-07T04:09:10;101594.19;;;12.87;100.00
44140;BME280;29803;51.048;4.686;2023-08-07T04:11:40;101580.91;;;12.85;100.00
44140;BME280;29803;51.048;4.686;2023-08-07T04:14:11;101580.38;;;12.82;100.00
44140;BME280;29803;51.048;4.686;2023-08-07T04:16:41;101585.16;;;12.96;100.00
44140;BME280;29803;51.048;4.686;2023-08-07T04:19:12;101591.72;;;13.02;100.00
44140;BME280;29803;51.048;4.686;2023-08-07T04:21:42;101592.38;;;12.95;100.00
44140;BME280;29803;51.048;4.686;2023-08-07T04:24:13;101593.22;;;12.96;100.00
44140;BME280;29803;51.048;4.686;2023-08-07T04:26:43;101589.19;;;13.00;100.00
44140;BME280;29803;51.048;4.686;2023-08-07T04:29:14;101596.59;;;12.98;100.00
44140;BME280;29803;51.048;4.686;2023-08-07T04:31:44;101598.78;;;13.03;100.00
44140;BME280;29803;51.048;4.686;2023-08-07T04:34:15;101598.78;;;13.03;100.00
44140;BME280;29803;51.048;4.686;2023-08-07T04:36:45;101584.31;;;13.04;100.00
44140;BME280;29803;51.048;4.686;2023-08-07T04:39:16;101599.09;;;13.00;100.00
44140;BME280;29803;51.048;4.686;2023-08-07T04:41:46;101601.31;;;13.04;100.00
44140;BME280;29803;51.048;4.686;2023-08-07T04:44:17;101599.16;;;13.08;100.00
44140;BME280;29803;51.048;4.686;2023-08-07T04:46:48;101603.69;;;13.07;100.00
44140;BME280;29803;51.048;4.686;2023-08-07T04:49:19;101604.22;;;13.11;100.00
44140;BME280;29803;51.048;4.686;2023-08-07T04:51:49;101603.88;;;13.06;100.00
44140;BME280;29803;51.048;4.686;2023-08-07T04:54:19;101597.81;;;13.12;100.00
44140;BME280;29803;51.048;4.686;2023-08-07T04:56:50;101605.06;;;13.11;100.00
44140;BME280;29803;51.048;4.686;2023-08-07T04:59:20;101604.38;;;13.17;100.00
44140;BME280;29803;51.048;4.686;2023-08-07T05:01:51;101609.78;;;13.17;100.00
44140;BME280;29803;51.048;4.686;2023-08-07T05:04:21;101612.13;;;13.12;100.00
44140;BME280;29803;51.048;4.686;2023-08-07T05:06:52;101617.69;;;13.11;100.00
44140;BME280;29803;51.048;4.686;2023-08-07T05:09:22;101620.16;;;13.04;100.00
44140;BME280;29803;51.048;4.686;2023-08-07T05:11:53;101608.41;;;13.05;100.00
44140;BME280;29803;51.048;4.686;2023-08-07T05:14:23;101620.31;;;12.94;100.00
44140;BME280;29803;51.048;4.686;2023-08-07T05:16:54;101623.34;;;13.00;100.00
44140;BME280;29803;51.048;4.686;2023-08-07T05:19:24;101632.28;;;13.00;100.00
44140;BME280;29803;51.048;4.686;2023-08-07T05:21:55;101629.41;;;12.93;100.00
44140;BME280;29803;51.048;4.686;2023-08-07T05:24:25;101639.50;;;12.91;100.00
44140;BME280;29803;51.048;4.686;2023-08-07T05:26:56;101637.81;;;12.90;100.00
44140;BME280;29803;51.048;4.686;2023-08-07T05:29:26;101640.34;;;12.92;100.00
44140;BME280;29803;51.048;4.686;2023-08-07T05:31:57;101637.13;;;12.88;100.00
44140;BME280;29803;51.048;4.686;2023-08-07T05:34:27;101637.31;;;12.95;100.00
44140;BME280;29803;51.048;4.686;2023-08-07T05:36:58;101647.09;;;12.96;100.00
44140;BME280;29803;51.048;4.686;2023-08-07T05:39:28;101645.03;;;12.90;100.00
44140;BME280;29803;51.048;4.686;2023-08-07T05:41:59;101639.31;;;12.93;100.00
44140;BME280;29803;51.048;4.686;2023-08-07T05:44:30;101646.09;;;12.97;100.00
44140;BME280;29803;51.048;4.686;2023-08-07T05:47:00;101649.31;;;13.09;100.00
44140;BME280;29803;51.048;4.686;2023-08-07T05:49:34;101649.31;;;13.09;100.00
44140;BME280;29803;51.048;4.686;2023-08-07T05:52:06;101649.00;;;13.20;100.00
44140;BME280;29803;51.048;4.686;2023-08-07T05:54:37;101662.53;;;13.28;100.00
44140;BME280;29803;51.048;4.686;2023-08-07T05:57:07;101656.03;;;13.47;100.00
44140;BME280;29803;51.048;4.686;2023-08-07T05:59:38;101658.75;;;13.63;100.00
44140;BME280;29803;51.048;4.686;2023-08-07T06:02:10;101663.84;;;14.07;100.00
44140;BME280;29803;51.048;4.686;2023-08-07T06:04:42;101654.47;;;14.67;100.00
44140;BME280;29803;51.048;4.686;2023-08-07T06:07:12;101659.47;;;15.57;100.00
44140;BME280;29803;51.048;4.686;2023-08-07T06:09:43;101652.69;;;16.07;100.00
44140;BME280;29803;51.048;4.686;2023-08-07T06:12:14;101654.59;;;16.65;100.00
44140;BME280;29803;51.048;4.686;2023-08-07T06:14:44;101659.09;;;17.17;100.00
44140;BME280;29803;51.048;4.686;2023-08-07T06:17:15;101659.94;;;17.54;100.00
44140;BME280;29803;51.048;4.686;2023-08-07T06:19:45;101650.69;;;17.70;100.00
44140;BME280;29803;51.048;4.686;2023-08-07T06:22:16;101662.88;;;17.95;100.00
44140;BME280;29803;51.048;4.686;2023-08-07T06:24:47;101664.53;;;18.46;100.00
44140;BME280;29803;51.048;4.686;2023-08-07T06:27:20;101665.16;;;18.76;100.00
44140;BME280;29803;51.048;4.686;2023-08-07T06:29:51;101675.06;;;18.62;100.00
44140;BME280;29803;51.048;4.686;2023-08-07T06:32:21;101674.63;;;18.86;100.00
44140;BME280;29803;51.048;4.686;2023-08-07T06:34:52;101670.56;;;19.04;100.00
44140;BME280;29803;51.048;4.686;2023-08-07T06:37:23;101672.31;;;19.31;100.00
44140;BME280;29803;51.048;4.686;2023-08-07T06:39:53;101674.81;;;19.26;100.00
44140;BME280;29803;51.048;4.686;2023-08-07T06:42:24;101676.38;;;19.55;100.00
44140;BME280;29803;51.048;4.686;2023-08-07T06:44:54;101668.44;;;19.54;100.00
44140;BME280;29803;51.048;4.686;2023-08-07T06:47:25;101670.56;;;19.65;100.00
44140;BME280;29803;51.048;4.686;2023-08-07T06:49:55;101674.41;;;20.04;100.00
44140;BME280;29803;51.048;4.686;2023-08-07T06:52:26;101684.88;;;20.33;100.00
44140;BME280;29803;51.048;4.686;2023-08-07T06:54:56;101668.31;;;20.15;100.00
44140;BME280;29803;51.048;4.686;2023-08-07T06:57:28;101671.88;;;20.15;100.00
44140;BME280;29803;51.048;4.686;2023-08-07T06:59:58;101674.59;;;20.22;100.00
44140;BME280;29803;51.048;4.686;2023-08-07T07:02:28;101672.50;;;20.31;100.00
44140;BME280;29803;51.048;4.686;2023-08-07T07:05:00;101671.06;;;20.28;100.00
44140;BME280;29803;51.048;4.686;2023-08-07T07:07:30;101667.88;;;20.58;100.00
44140;BME280;29803;51.048;4.686;2023-08-07T07:10:01;101665.94;;;20.78;100.00
44140;BME280;29803;51.048;4.686;2023-08-07T07:12:32;101669.78;;;20.31;100.00
44140;BME280;29803;51.048;4.686;2023-08-07T07:15:02;101673.13;;;20.53;100.00
44140;BME280;29803;51.048;4.686;2023-08-07T07:20:04;101670.56;;;20.84;100.00
44140;BME280;29803;51.048;4.686;2023-08-07T07:22:35;101673.94;;;20.80;100.00
44140;BME280;29803;51.048;4.686;2023-08-07T07:25:06;101675.22;;;20.64;100.00
44140;BME280;29803;51.048;4.686;2023-08-07T07:27:36;101673.13;;;20.66;100.00
44140;BME280;29803;51.048;4.686;2023-08-07T07:30:07;101675.78;;;20.86;100.00
44140;BME280;29803;51.048;4.686;2023-08-07T07:32:38;101678.78;;;20.64;100.00
44140;BME280;29803;51.048;4.686;2023-08-07T07:35:08;101677.56;;;20.54;100.00
44140;BME280;29803;51.048;4.686;2023-08-07T07:37:39;101684.88;;;20.60;100.00
44140;BME280;29803;51.048;4.686;2023-08-07T07:40:10;101675.84;;;19.86;100.00
44140;BME280;29803;51.048;4.686;2023-08-07T07:42:41;101684.38;;;19.09;100.00
44140;BME280;29803;51.048;4.686;2023-08-07T07:45:11;101683.78;;;18.51;100.00
44140;BME280;29803;51.048;4.686;2023-08-07T07:47:41;101690.00;;;19.07;100.00
44140;BME280;29803;51.048;4.686;2023-08-07T07:50:12;101690.81;;;19.49;100.00
44140;BME280;29803;51.048;4.686;2023-08-07T07:52:43;101698.66;;;19.85;100.00
44140;BME280;29803;51.048;4.686;2023-08-07T07:55:14;101706.88;;;20.05;100.00
44140;BME280;29803;51.048;4.686;2023-08-07T07:57:45;101706.88;;;20.38;100.00
44140;BME280;29803;51.048;4.686;2023-08-07T08:00:15;101711.91;;;20.48;100.00
44140;BME280;29803;51.048;4.686;2023-08-07T08:02:46;101720.31;;;20.53;100.00
44140;BME280;29803;51.048;4.686;2023-08-07T08:05:17;101718.00;;;20.43;100.00
44140;BME280;29803;51.048;4.686;2023-08-07T08:07:48;101714.00;;;20.26;100.00
44140;BME280;29803;51.048;4.686;2023-08-07T08:10:18;101709.41;;;20.33;100.00
44140;BME280;29803;51.048;4.686;2023-08-07T08:12:49;101701.84;;;20.42;100.00
44140;BME280;29803;51.048;4.686;2023-08-07T08:15:19;101711.09;;;20.61;100.00
44140;BME280;29803;51.048;4.686;2023-08-07T08:17:50;101708.78;;;20.64;100.00
44140;BME280;29803;51.048;4.686;2023-08-07T08:20:20;101715.50;;;20.68;100.00
44140;BME280;29803;51.048;4.686;2023-08-07T08:22:51;101724.88;;;19.93;100.00
44140;BME280;29803;51.048;4.686;2023-08-07T08:25:21;101723.78;;;19.26;100.00
44140;BME280;29803;51.048;4.686;2023-08-07T08:27:52;101733.91;;;18.98;100.00
44140;BME280;29803;51.048;4.686;2023-08-07T08:30:23;101734.28;;;18.67;100.00
44140;BME280;29803;51.048;4.686;2023-08-07T08:32:53;101736.34;;;18.36;100.00
44140;BME280;29803;51.048;4.686;2023-08-07T08:35:24;101740.03;;;18.29;100.00
44140;BME280;29803;51.048;4.686;2023-08-07T08:37:54;101728.16;;;18.86;100.00
44140;BME280;29803;51.048;4.686;2023-08-07T08:40:25;101734.00;;;19.65;100.00
44140;BME280;29803;51.048;4.686;2023-08-07T08:42:56;101732.22;;;19.99;100.00
44140;BME280;29803;51.048;4.686;2023-08-07T08:45:30;101733.50;;;20.23;100.00
44140;BME280;29803;51.048;4.686;2023-08-07T08:48:03;101731.44;;;20.52;100.00
44140;BME280;29803;51.048;4.686;2023-08-07T08:50:35;101736.59;;;20.93;100.00
44140;BME280;29803;51.048;4.686;2023-08-07T08:53:07;101733.09;;;20.53;100.00
44140;BME280;29803;51.048;4.686;2023-08-07T08:55:39;101724.66;;;20.87;100.00
44140;BME280;29803;51.048;4.686;2023-08-07T08:58:14;101737.41;;;21.07;100.00
44140;BME280;29803;51.048;4.686;2023-08-07T09:00:45;101745.34;;;21.21;100.00
44140;BME280;29803;51.048;4.686;2023-08-07T09:03:18;101757.06;;;21.42;100.00
44140;BME280;29803;51.048;4.686;2023-08-07T09:05:49;101742.81;;;21.40;100.00
44140;BME280;29803;51.048;4.686;2023-08-07T09:08:26;101751.63;;;21.22;100.00
44140;BME280;29803;51.048;4.686;2023-08-07T09:10:57;101742.41;;;21.23;100.00
44140;BME280;29803;51.048;4.686;2023-08-07T09:13:28;101733.97;;;21.44;100.00
44140;BME280;29803;51.048;4.686;2023-08-07T09:15:59;101738.13;;;21.54;100.00
44140;BME280;29803;51.048;4.686;2023-08-07T09:18:30;101742.06;;;20.93;100.00
44140;BME280;29803;51.048;4.686;2023-08-07T09:21:01;101750.72;;;20.70;100.00
44140;BME280;29803;51.048;4.686;2023-08-07T09:23:32;101750.47;;;20.91;100.00
44140;BME280;29803;51.048;4.686;2023-08-07T09:26:03;101739.03;;;21.28;100.00
44140;BME280;29803;51.048;4.686;2023-08-07T09:28:34;101746.81;;;21.31;100.00
44140;BME280;29803;51.048;4.686;2023-08-07T09:31:06;101749.09;;;21.40;100.00
44140;BME280;29803;51.048;4.686;2023-08-07T09:33:38;101745.47;;;20.68;100.00
44140;BME280;29803;51.048;4.686;2023-08-07T09:36:09;101754.44;;;20.95;100.00
44140;BME280;29803;51.048;4.686;2023-08-07T09:38:39;101752.09;;;21.12;100.00
44140;BME280;29803;51.048;4.686;2023-08-07T09:41:10;101748.72;;;21.30;100.00
44140;BME280;29803;51.048;4.686;2023-08-07T09:43:41;101759.53;;;21.57;100.00
44140;BME280;29803;51.048;4.686;2023-08-07T09:46:11;101755.97;;;20.58;100.00
44140;BME280;29803;51.048;4.686;2023-08-07T09:48:43;101758.88;;;20.57;100.00
44140;BME280;29803;51.048;4.686;2023-08-07T09:51:15;101759.09;;;20.62;100.00
44140;BME280;29803;51.048;4.686;2023-08-07T09:53:47;101769.56;;;20.91;100.00
44140;BME280;29803;51.048;4.686;2023-08-07T09:56:17;101759.41;;;21.32;100.00
44140;BME280;29803;51.048;4.686;2023-08-07T09:58:48;101770.44;;;21.57;100.00
44140;BME280;29803;51.048;4.686;2023-08-07T10:01:19;101770.81;;;21.67;100.00
44140;BME280;29803;51.048;4.686;2023-08-07T10:03:50;101772.78;;;21.46;100.00
44140;BME280;29803;51.048;4.686;2023-08-07T10:06:20;101771.38;;;21.31;100.00
44140;BME280;29803;51.048;4.686;2023-08-07T10:08:52;101776.63;;;21.26;100.00
44140;BME280;29803;51.048;4.686;2023-08-07T10:11:23;101783.56;;;21.21;100.00
44140;BME280;29803;51.048;4.686;2023-08-07T10:13:54;101768.78;;;21.56;100.00
44140;BME280;29803;51.048;4.686;2023-08-07T10:16:28;101757.88;;;21.94;100.00
44140;BME280;29803;51.048;4.686;2023-08-07T10:18:59;101775.22;;;22.06;100.00
44140;BME280;29803;51.048;4.686;2023-08-07T10:21:30;101781.19;;;21.52;100.00
44140;BME280;29803;51.048;4.686;2023-08-07T10:24:03;101780.41;;;21.25;100.00
44140;BME280;29803;51.048;4.686;2023-08-07T10:26:39;101795.38;;;20.95;100.00
44140;BME280;29803;51.048;4.686;2023-08-07T10:29:14;101789.06;;;20.95;100.00
44140;BME280;29803;51.048;4.686;2023-08-07T10:31:46;101786.69;;;21.32;100.00
44140;BME280;29803;51.048;4.686;2023-08-07T10:34:17;101783.75;;;21.27;100.00
44140;BME280;29803;51.048;4.686;2023-08-07T10:36:49;101783.75;;;21.40;100.00
44140;BME280;29803;51.048;4.686;2023-08-07T10:39:19;101794.09;;;20.98;100.00
44140;BME280;29803;51.048;4.686;2023-08-07T10:41:53;101787.13;;;21.35;100.00
44140;BME280;29803;51.048;4.686;2023-08-07T10:44:27;101789.88;;;21.80;100.00
44140;BME280;29803;51.048;4.686;2023-08-07T10:47:01;101797.28;;;22.11;100.00
44140;BME280;29803;51.048;4.686;2023-08-07T10:49:35;101784.59;;;21.79;100.00
44140;BME280;29803;51.048;4.686;2023-08-07T10:52:09;101796.16;;;21.81;100.00
44140;BME280;29803;51.048;4.686;2023-08-07T10:54:45;101791.38;;;22.08;100.00
44140;BME280;29803;51.048;4.686;2023-08-07T10:57:18;101779.84;;;22.12;100.00
44140;BME280;29803;51.048;4.686;2023-08-07T11:02:41;101787.09;;;21.87;100.00
44140;BME280;29803;51.048;4.686;2023-08-07T11:05:12;101798.91;;;21.81;100.00
44140;BME280;29803;51.048;4.686;2023-08-07T11:07:43;101788.09;;;21.99;100.00
44140;BME280;29803;51.048;4.686;2023-08-07T11:10:14;101794.34;;;22.13;100.00
44140;BME280;29803;51.048;4.686;2023-08-07T11:12:46;101791.06;;;21.91;100.00
44140;BME280;29803;51.048;4.686;2023-08-07T11:15:16;101798.13;;;21.67;100.00
44140;BME280;29803;51.048;4.686;2023-08-07T11:17:47;101802.13;;;21.64;100.00
44140;BME280;29803;51.048;4.686;2023-08-07T11:20:18;101809.22;;;21.72;100.00
44140;BME280;29803;51.048;4.686;2023-08-07T11:22:49;101799.38;;;22.16;100.00
44140;BME280;29803;51.048;4.686;2023-08-07T11:25:20;101800.38;;;22.21;100.00
44140;BME280;29803;51.048;4.686;2023-08-07T11:27:50;101807.28;;;21.86;100.00
44140;BME280;29803;51.048;4.686;2023-08-07T11:30:21;101805.75;;;21.52;100.00
44140;BME280;29803;51.048;4.686;2023-08-07T11:32:51;101808.25;;;21.60;100.00
44140;BME280;29803;51.048;4.686;2023-08-07T11:35:22;101794.41;;;21.93;100.00
44140;BME280;29803;51.048;4.686;2023-08-07T11:37:53;101792.03;;;22.41;100.00
44140;BME280;29803;51.048;4.686;2023-08-07T11:40:24;101795.88;;;22.59;100.00
44140;BME280;29803;51.048;4.686;2023-08-07T11:42:55;101800.19;;;22.73;100.00
44140;BME280;29803;51.048;4.686;2023-08-07T11:45:26;101797.41;;;22.55;100.00
44140;BME280;29803;51.048;4.686;2023-08-07T11:47:56;101796.63;;;22.72;100.00
44140;BME280;29803;51.048;4.686;2023-08-07T11:50:29;101785.81;;;22.59;100.00
44140;BME280;29803;51.048;4.686;2023-08-07T11:53:00;101790.47;;;22.52;100.00
44140;BME280;29803;51.048;4.686;2023-08-07T11:55:31;101798.88;;;22.26;100.00
44140;BME280;29803;51.048;4.686;2023-08-07T11:58:20;101790.19;;;21.97;100.00
44140;BME280;29803;51.048;4.686;2023-08-07T12:00:50;101784.56;;;21.92;100.00
44140;BME280;29803;51.048;4.686;2023-08-07T12:03:35;101792.84;;;22.10;100.00
44140;BME280;29803;51.048;4.686;2023-08-07T12:06:09;101782.16;;;21.70;100.00
44140;BME280;29803;51.048;4.686;2023-08-07T12:08:41;101793.19;;;21.37;100.00
44140;BME280;29803;51.048;4.686;2023-08-07T12:11:12;101784.59;;;21.27;100.00
44140;BME280;29803;51.048;4.686;2023-08-07T12:13:44;101785.56;;;21.53;100.00
44140;BME280;29803;51.048;4.686;2023-08-07T12:16:16;101773.38;;;22.00;100.00
44140;BME280;29803;51.048;4.686;2023-08-07T12:18:49;101789.03;;;22.49;100.00
44140;BME280;29803;51.048;4.686;2023-08-07T12:21:21;101781.28;;;22.46;100.00
44140;BME280;29803;51.048;4.686;2023-08-07T12:23:56;101790.75;;;22.19;100.00
44140;BME280;29803;51.048;4.686;2023-08-07T12:26:26;101791.72;;;21.86;100.00
44140;BME280;29803;51.048;4.686;2023-08-07T12:28:57;101792.63;;;21.73;100.00
44140;BME280;29803;51.048;4.686;2023-08-07T12:31:27;101792.66;;;21.67;100.00
44140;BME280;29803;51.048;4.686;2023-08-07T12:33:58;101789.28;;;21.71;100.00
44140;BME280;29803;51.048;4.686;2023-08-07T12:36:28;101779.38;;;21.77;100.00
44140;BME280;29803;51.048;4.686;2023-08-07T12:38:59;101771.78;;;22.24;100.00
44140;BME280;29803;51.048;4.686;2023-08-07T12:41:31;101773.25;;;22.52;100.00
44140;BME280;29803;51.048;4.686;2023-08-07T12:44:01;101779.09;;;22.55;100.00
44140;BME280;29803;51.048;4.686;2023-08-07T12:46:32;101770.22;;;22.85;100.00
44140;BME280;29803;51.048;4.686;2023-08-07T12:49:02;101765.97;;;22.89;100.00
44140;BME280;29803;51.048;4.686;2023-08-07T12:51:32;101773.56;;;22.62;100.00
44140;BME280;29803;51.048;4.686;2023-08-07T12:54:03;101775.41;;;22.43;100.00
44140;BME280;29803;51.048;4.686;2023-08-07T12:56:34;101774.00;;;22.34;100.00
44140;BME280;29803;51.048;4.686;2023-08-07T12:59:05;101766.94;;;22.51;100.00
44140;BME280;29803;51.048;4.686;2023-08-07T13:01:35;101761.81;;;22.61;100.00
44140;BME280;29803;51.048;4.686;2023-08-07T13:04:06;101770.84;;;22.62;100.00
44140;BME280;29803;51.048;4.686;2023-08-07T13:06:38;101763.53;;;22.56;100.00
44140;BME280;29803;51.048;4.686;2023-08-07T13:09:08;101770.66;;;22.32;100.00
44140;BME280;29803;51.048;4.686;2023-08-07T13:11:39;101760.94;;;22.11;100.00